Terminal Aerodrome Forecast
Issued by NWS Sioux Falls, SD

Home | Current Version | Previous Version | Text Only | Print | Product List | Glossary On
Versions: 1 2 3 4 5 6 7 8 9 10 11 12 13 14 15 16 17 18 19 20 21 22 23 24 25 26 27
000
FTUS43 KFSD 041730
TAFSUX
TAF
KSUX 041730Z 0418/0518 17010KT P6SM FEW120
     FM050200 15007KT P6SM FEW120
     FM051600 16012G18KT P6SM FEW040=

USA.gov is the U.S. government's official web portal to all federal, state and local government web resources and services.